This is the latest recevied weather packets stored in our database for station/object KB1JDX. If no packets are shown the sender has not sent any weather packets the latest 10 day(s).
| Time | Temp. | Humidity | Pressure | Rain* | Wind** | Luminosity | Snow |
|---|---|---|---|---|---|---|---|
| 1787957537 | 26.67° C | 37% | 1014.9 hPa | 0 mm | 0 m/s | - | - |
| 1787956337 | 27.22° C | 42% | 1014.8 hPa | 0 mm | 0 m/s | - | - |
| 1787956273 | 27.22° C | 42% | 1014.8 hPa | 0 mm | 0 m/s | - | - |
| 1787955137 | 27.78° C | 44% | 1014.7 hPa | 0 mm | 0 m/s | - | - |
| 1787953936 | 27.78° C | 42% | 1014.5 hPa | 0 mm | 0 m/s | - | - |
| 1787952673 | 28.33° C | 45% | 1014.5 hPa | 0 mm | 0 m/s | - | - |
| 1787951537 | 28.89° C | 48% | 1014.4 hPa | 0 mm | 0 m/s | - | - |
| 1787950337 | 29.44° C | 49% | 1014.5 hPa | 0 mm | 0 m/s | - | - |
| 1787949136 | 30° C | 48% | 1014.3 hPa | 0 mm | 0 m/s | - | - |
| 1787949072 | 30° C | 48% | 1014.3 hPa | 0 mm | 0 m/s | - | - |
| 1787946740 | 29.44° C | 49% | 1014.5 hPa | 0 mm | 0 m/s | - | - |
| 1787945537 | 30° C | 47% | 1014.4 hPa | 0 mm | 0 m/s | - | - |
| 1787945472 | 30° C | 46% | 1014.4 hPa | 0 mm | 0 m/s | - | - |
| 1787943137 | 30° C | 45% | 1014.6 hPa | 0 mm | 0 m/s | - | - |
| 1787941937 | 28.89° C | 41% | 1014.9 hPa | 0 mm | 0 m/s | - | - |
| 1787941873 | 28.89° C | 41% | 1015 hPa | 0 mm | 0 m/s | - | - |
| 1787940737 | 28.89° C | 39% | 1014.9 hPa | 0 mm | 0 m/s | - | - |
| 1787939538 | 28.33° C | 33% | 1015.1 hPa | 0 mm | 0 m/s | - | - |
| 1787938338 | 28.89° C | 34% | 1014.9 hPa | 0 mm | 0 m/s | - | - |
| 1787938272 | 28.89° C | 34% | 1014.9 hPa | 0 mm | 0 m/s | - | - |
| 1787937138 | 27.78° C | 29% | 1015.2 hPa | 0 mm | 0 m/s | - | - |
| 1787935937 | 27.78° C | 24% | 1015.2 hPa | 0 mm | 0 m/s | - | - |
| 1787934672 | 27.22° C | 14% | 1015.5 hPa | 0 mm | 0 m/s | - | - |
| 1787933536 | 26.67° C | 4% | 1015.7 hPa | 0 mm | 0 m/s | - | - |
| 1787932338 | 25.56° C | 100% | 1015.6 hPa | 0 mm | 0 m/s | - | - |
* Rain latest hour (hover to see other rain measurements)
** Current wind speed in m/s (hover to see current wind gust speed)